createdAt,value
2023-02-02T00:00:28.913Z,1015.23
2023-02-02T00:01:28.935Z,1015.23
2023-02-02T00:02:29.023Z,1015.24
2023-02-02T00:03:28.991Z,1015.26
2023-02-02T00:04:29.008Z,1015.22
2023-02-02T00:05:29.030Z,1015.21
2023-02-02T00:06:29.056Z,1015.30
2023-02-02T00:07:29.079Z,1015.25
2023-02-02T00:08:29.104Z,1015.28
2023-02-02T00:09:29.155Z,1015.19
2023-02-02T00:10:29.152Z,1015.24
2023-02-02T00:11:29.182Z,1015.25
2023-02-02T00:12:29.399Z,1015.23
2023-02-02T00:13:29.223Z,1015.22
2023-02-02T00:14:29.254Z,1015.23
2023-02-02T00:15:29.271Z,1015.23
2023-02-02T00:16:29.410Z,1015.20
2023-02-02T00:17:29.419Z,1015.20
2023-02-02T00:18:29.372Z,1015.24
2023-02-02T00:19:29.368Z,1015.16
2023-02-02T00:20:29.396Z,1015.21
2023-02-02T00:21:29.418Z,1015.25
2023-02-02T00:22:29.443Z,1015.21
2023-02-02T00:23:29.465Z,1015.27
2023-02-02T00:24:29.496Z,1015.26
2023-02-02T00:25:29.512Z,1015.29
2023-02-02T00:26:29.588Z,1015.22
2023-02-02T00:27:29.562Z,1015.27
2023-02-02T00:28:29.586Z,1015.22
2023-02-02T00:29:29.609Z,1015.18
2023-02-02T00:30:29.657Z,1015.26
2023-02-02T00:31:29.707Z,1015.23
2023-02-02T00:32:29.682Z,1015.15
2023-02-02T00:33:29.707Z,1015.21
2023-02-02T00:34:29.754Z,1015.25
2023-02-02T00:35:29.761Z,1015.22
2023-02-02T00:36:29.780Z,1015.18
2023-02-02T00:37:29.801Z,1015.23
2023-02-02T00:38:29.831Z,1015.18
2023-02-02T00:39:29.854Z,1015.22
2023-02-02T00:40:29.877Z,1015.26
2023-02-02T00:41:29.900Z,1015.21
2023-02-02T00:42:29.934Z,1015.18
2023-02-02T00:43:29.950Z,1015.09
2023-02-02T00:44:29.977Z,1015.15
2023-02-02T00:45:30.011Z,1015.11
2023-02-02T00:46:30.026Z,1015.10
2023-02-02T00:47:30.045Z,1015.13
2023-02-02T00:48:30.073Z,1015.11
2023-02-02T00:49:30.097Z,1015.26
2023-02-02T00:50:30.139Z,1015.10
2023-02-02T00:51:30.144Z,1015.11
2023-02-02T00:52:30.170Z,1015.09
2023-02-02T00:53:30.194Z,1015.11
2023-02-02T00:54:30.225Z,1015.11
2023-02-02T00:55:30.242Z,1015.14
2023-02-02T00:56:30.267Z,1015.13
2023-02-02T00:57:30.294Z,1015.11
2023-02-02T00:58:30.314Z,1015.02
2023-02-02T00:59:30.338Z,1015.06
2023-02-02T01:00:30.365Z,1015.03
2023-02-02T01:01:30.396Z,1015.06
2023-02-02T01:02:30.449Z,1015.09
2023-02-02T01:03:30.436Z,1014.98
2023-02-02T01:04:30.460Z,1015.00
2023-02-02T01:05:30.485Z,1015.02
2023-02-02T01:06:30.533Z,1015.03
2023-02-02T01:07:30.538Z,1015.05
2023-02-02T01:08:30.560Z,1015.01
2023-02-02T01:09:30.580Z,1015.05
2023-02-02T01:10:30.609Z,1015.00
2023-02-02T01:11:30.629Z,1015.04
2023-02-02T01:12:30.656Z,1015.03
2023-02-02T01:13:30.679Z,1015.08
2023-02-02T01:14:30.704Z,1015.06
2023-02-02T01:15:30.736Z,1015.06
2023-02-02T01:16:30.906Z,1015.01
2023-02-02T01:17:30.782Z,1015.05
2023-02-02T01:18:30.802Z,1015.05
2023-02-02T01:19:30.824Z,1015.01
2023-02-02T01:20:30.850Z,1015.04
2023-02-02T01:21:30.873Z,1015.05
2023-02-02T01:22:30.919Z,1015.02
2023-02-02T01:23:30.923Z,1015.08
2023-02-02T01:24:30.946Z,1015.10
2023-02-02T01:25:30.970Z,1015.09
2023-02-02T01:26:31.027Z,1015.14
2023-02-02T01:27:31.019Z,1015.15
2023-02-02T01:28:31.048Z,1015.12
2023-02-02T01:29:31.068Z,1015.16
2023-02-02T01:30:31.094Z,1015.23
2023-02-02T01:31:31.152Z,1015.23
2023-02-02T01:32:31.140Z,1015.15
2023-02-02T01:33:31.168Z,1015.23
2023-02-02T01:34:31.190Z,1015.19
2023-02-02T01:35:31.220Z,1015.31
2023-02-02T01:36:31.243Z,1015.25
2023-02-02T01:37:31.262Z,1015.16
2023-02-02T01:38:31.314Z,1015.24
2023-02-02T01:39:33.099Z,1015.28
2023-02-02T01:40:31.338Z,1015.25
2023-02-02T01:41:31.362Z,1015.24
2023-02-02T01:42:31.386Z,1015.24
2023-02-02T01:43:31.412Z,1015.30
2023-02-02T01:44:31.434Z,1015.35
2023-02-02T01:45:31.528Z,1015.27
2023-02-02T01:46:31.487Z,1015.25
2023-02-02T01:47:31.506Z,1015.29
2023-02-02T01:48:31.532Z,1015.35
2023-02-02T01:49:31.555Z,1015.35
2023-02-02T01:50:31.580Z,1015.23
2023-02-02T01:51:31.603Z,1015.33
2023-02-02T01:52:31.628Z,1015.36
2023-02-02T01:53:31.650Z,1015.36
2023-02-02T01:54:31.702Z,1015.45
2023-02-02T01:55:31.701Z,1015.47
2023-02-02T01:56:31.737Z,1015.39
2023-02-02T01:57:31.747Z,1015.41
2023-02-02T01:58:31.772Z,1015.42
2023-02-02T01:59:31.808Z,1015.49
2023-02-02T02:00:31.829Z,1015.49
2023-02-02T02:01:32.071Z,1015.47
2023-02-02T02:02:31.924Z,1015.48
2023-02-02T02:03:31.905Z,1015.44
2023-02-02T02:04:31.922Z,1015.46
2023-02-02T02:05:31.943Z,1015.46
2023-02-02T02:06:32.009Z,1015.50
2023-02-02T02:07:31.990Z,1015.43
2023-02-02T02:08:32.013Z,1015.47
2023-02-02T02:09:32.036Z,1015.52
2023-02-02T02:10:32.082Z,1015.51
2023-02-02T02:11:32.088Z,1015.47
2023-02-02T02:12:32.112Z,1015.53
2023-02-02T02:13:32.131Z,1015.51
2023-02-02T02:14:32.158Z,1015.48
2023-02-02T02:15:32.185Z,1015.52
2023-02-02T02:16:32.218Z,1015.46
2023-02-02T02:17:32.228Z,1015.46
2023-02-02T02:18:32.255Z,1015.49
2023-02-02T02:19:32.279Z,1015.58
2023-02-02T02:20:32.302Z,1015.42
2023-02-02T02:21:32.352Z,1015.41
2023-02-02T02:22:32.366Z,1015.41
2023-02-02T02:23:32.375Z,1015.38
2023-02-02T02:24:32.406Z,1015.41
2023-02-02T02:25:32.425Z,1015.39
2023-02-02T02:26:32.646Z,1015.30
2023-02-02T02:27:32.473Z,1015.37
2023-02-02T02:28:32.497Z,1015.47
2023-02-02T02:29:32.556Z,1015.30
2023-02-02T02:30:32.642Z,1015.41
2023-02-02T02:31:32.722Z,1015.43
2023-02-02T02:32:32.599Z,1015.42
2023-02-02T02:33:32.614Z,1015.40
2023-02-02T02:34:32.638Z,1015.37
2023-02-02T02:35:32.663Z,1015.39
2023-02-02T02:36:32.683Z,1015.41
2023-02-02T02:37:32.710Z,1015.44
2023-02-02T02:38:32.735Z,1015.38
2023-02-02T02:39:32.761Z,1015.37
2023-02-02T02:40:32.781Z,1015.37
2023-02-02T02:41:32.806Z,1015.36
2023-02-02T02:42:32.848Z,1015.27
2023-02-02T02:43:32.856Z,1015.35
2023-02-02T02:44:32.877Z,1015.29
2023-02-02T02:45:32.902Z,1015.35
2023-02-02T02:46:32.992Z,1015.27
2023-02-02T02:47:32.949Z,1015.17
2023-02-02T02:48:32.976Z,1015.29
2023-02-02T02:49:33.002Z,1015.25
2023-02-02T02:50:33.021Z,1015.32
2023-02-02T02:51:33.043Z,1015.28
2023-02-02T02:52:33.068Z,1015.30
2023-02-02T02:53:33.090Z,1015.20
2023-02-02T02:54:33.204Z,1015.22
2023-02-02T02:55:33.137Z,1015.26
2023-02-02T02:56:33.164Z,1015.25
2023-02-02T02:57:33.189Z,1015.21
2023-02-02T02:58:33.233Z,1015.26
2023-02-02T02:59:33.235Z,1015.25
2023-02-02T03:00:33.255Z,1015.24
2023-02-02T03:01:33.372Z,1015.23
2023-02-02T03:02:33.346Z,1015.24
2023-02-02T03:03:33.330Z,1015.30
2023-02-02T03:04:33.352Z,1015.30
2023-02-02T03:05:33.382Z,1015.33
2023-02-02T03:06:33.398Z,1015.27
2023-02-02T03:07:33.425Z,1015.29
2023-02-02T03:08:33.448Z,1015.29
2023-02-02T03:09:33.471Z,1015.28
2023-02-02T03:10:33.646Z,1015.35
2023-02-02T03:11:33.519Z,1015.30
2023-02-02T03:12:33.541Z,1015.43
2023-02-02T03:13:33.570Z,1015.42
2023-02-02T03:14:33.607Z,1015.37
2023-02-02T03:15:33.696Z,1015.32
2023-02-02T03:16:33.635Z,1015.39
2023-02-02T03:17:33.683Z,1015.34
2023-02-02T03:18:33.699Z,1015.33
2023-02-02T03:19:33.717Z,1015.42
2023-02-02T03:20:33.731Z,1015.38
2023-02-02T03:21:33.760Z,1015.40
2023-02-02T03:22:33.784Z,1015.38
2023-02-02T03:23:33.810Z,1015.37
2023-02-02T03:24:33.830Z,1015.29
2023-02-02T03:25:33.865Z,1015.37
2023-02-02T03:26:33.903Z,1015.39
2023-02-02T03:27:33.902Z,1015.46
2023-02-02T03:28:33.923Z,1015.42
2023-02-02T03:29:33.947Z,1015.40
2023-02-02T03:30:34.049Z,1015.51
2023-02-02T03:31:34.007Z,1015.34
2023-02-02T03:32:34.021Z,1015.45
2023-02-02T03:33:34.040Z,1015.46
2023-02-02T03:34:34.065Z,1015.45
2023-02-02T03:35:34.090Z,1015.43
2023-02-02T03:36:34.115Z,1015.51
2023-02-02T03:37:34.137Z,1015.46
2023-02-02T03:38:34.158Z,1015.44
2023-02-02T03:39:34.186Z,1015.52
2023-02-02T03:40:34.205Z,1015.49
2023-02-02T03:41:34.245Z,1015.49
2023-02-02T03:43:34.285Z,1015.53
2023-02-02T03:44:34.305Z,1015.51
2023-02-02T03:45:34.326Z,1015.51
2023-02-02T03:46:34.420Z,1015.46
2023-02-02T03:47:34.383Z,1015.59
2023-02-02T03:48:34.403Z,1015.50
2023-02-02T03:49:34.432Z,1015.56
2023-02-02T03:50:34.457Z,1015.60
2023-02-02T03:51:34.471Z,1015.56
2023-02-02T03:52:34.495Z,1015.57
2023-02-02T03:53:34.518Z,1015.60
2023-02-02T03:54:34.541Z,1015.58
2023-02-02T03:55:34.572Z,1015.58
2023-02-02T03:56:34.594Z,1015.57
2023-02-02T03:57:34.613Z,1015.57
2023-02-02T03:58:34.650Z,1015.58
2023-02-02T03:59:34.663Z,1015.62
2023-02-02T04:00:34.680Z,1015.59
2023-02-02T04:01:34.774Z,1015.58
2023-02-02T04:02:34.773Z,1015.60
2023-02-02T04:03:34.751Z,1015.60
2023-02-02T04:04:34.775Z,1015.65
2023-02-02T04:05:34.800Z,1015.63
2023-02-02T04:06:34.833Z,1015.64
2023-02-02T04:07:34.847Z,1015.63
2023-02-02T04:08:34.881Z,1015.64
2023-02-02T04:09:34.908Z,1015.61
2023-02-02T04:10:34.920Z,1015.62
2023-02-02T04:11:34.942Z,1015.64
2023-02-02T04:12:34.966Z,1015.58
2023-02-02T04:13:34.990Z,1015.63
2023-02-02T04:14:35.021Z,1015.60
2023-02-02T04:15:35.039Z,1015.59
2023-02-02T04:16:35.158Z,1015.62
2023-02-02T04:17:35.084Z,1015.63
2023-02-02T04:18:35.130Z,1015.66
2023-02-02T04:19:35.132Z,1015.70
2023-02-02T04:20:35.156Z,1015.69
2023-02-02T04:21:35.180Z,1015.71
2023-02-02T04:22:35.228Z,1015.64
2023-02-02T04:23:35.227Z,1015.66
2023-02-02T04:24:37.912Z,1015.77
2023-02-02T04:25:35.275Z,1015.73
2023-02-02T04:26:35.371Z,1015.77
2023-02-02T04:27:35.323Z,1015.73
2023-02-02T04:28:35.356Z,1015.80
2023-02-02T04:29:35.373Z,1015.72
2023-02-02T04:30:35.448Z,1015.78
2023-02-02T04:31:35.471Z,1015.70
2023-02-02T04:32:35.443Z,1015.75
2023-02-02T04:33:35.466Z,1015.71
2023-02-02T04:34:35.514Z,1015.71
2023-02-02T04:35:35.515Z,1015.76
2023-02-02T04:36:35.545Z,1015.75
2023-02-02T04:37:35.578Z,1015.75
2023-02-02T04:38:35.585Z,1015.75
2023-02-02T04:39:35.607Z,1015.82
2023-02-02T04:40:35.633Z,1015.83
2023-02-02T04:41:35.655Z,1015.86
2023-02-02T04:42:35.681Z,1015.81
2023-02-02T04:43:35.703Z,1015.79
2023-02-02T04:44:35.733Z,1015.86
2023-02-02T04:45:35.816Z,1015.89
2023-02-02T04:46:35.783Z,1015.89
2023-02-02T04:47:35.804Z,1015.91
2023-02-02T04:48:35.822Z,1015.92
2023-02-02T04:49:35.846Z,1015.93
2023-02-02T04:50:35.889Z,1015.92
2023-02-02T04:51:35.893Z,1015.91
2023-02-02T04:52:35.917Z,1015.89
2023-02-02T04:53:35.942Z,1015.93
2023-02-02T04:54:35.967Z,1015.92
2023-02-02T04:55:35.990Z,1015.89
2023-02-02T04:56:36.010Z,1015.88
2023-02-02T04:57:36.038Z,1015.86
2023-02-02T04:58:36.064Z,1015.93
2023-02-02T04:59:36.085Z,1015.90
2023-02-02T05:00:36.106Z,1015.91
2023-02-02T05:01:36.137Z,1015.94
2023-02-02T05:02:36.154Z,1015.90
2023-02-02T05:03:36.181Z,1015.92
2023-02-02T05:04:36.279Z,1015.97
2023-02-02T05:05:36.225Z,1015.95
2023-02-02T05:06:36.287Z,1015.95
2023-02-02T05:07:36.276Z,1016.01
2023-02-02T05:08:36.296Z,1016.00
2023-02-02T05:09:36.333Z,1015.97
2023-02-02T05:10:36.343Z,1015.99
2023-02-02T05:11:36.366Z,1015.97
2023-02-02T05:12:36.389Z,1015.95
2023-02-02T05:13:36.417Z,1015.96
2023-02-02T05:14:36.446Z,1015.91
2023-02-02T05:15:36.461Z,1015.95
2023-02-02T05:16:36.564Z,1015.94
2023-02-02T05:17:36.506Z,1015.94
2023-02-02T05:18:36.531Z,1015.95
2023-02-02T05:19:36.557Z,1015.99
2023-02-02T05:20:36.578Z,1015.93
2023-02-02T05:21:36.603Z,1015.97
2023-02-02T05:22:36.647Z,1016.03
2023-02-02T05:23:36.652Z,1016.00
2023-02-02T05:24:36.673Z,1015.96
2023-02-02T05:25:36.698Z,1016.02
2023-02-02T05:26:36.741Z,1016.02
2023-02-02T05:27:36.742Z,1016.05
2023-02-02T05:28:36.770Z,1016.08
2023-02-02T05:29:36.792Z,1016.06
2023-02-02T05:30:36.876Z,1016.07
2023-02-02T05:31:36.942Z,1016.07
2023-02-02T05:32:36.859Z,1016.11
2023-02-02T05:33:36.883Z,1016.03
2023-02-02T05:34:36.911Z,1016.08
2023-02-02T05:35:36.931Z,1016.08
2023-02-02T05:36:36.954Z,1016.12
2023-02-02T05:37:36.978Z,1016.05
2023-02-02T05:38:37.023Z,1016.06
2023-02-02T05:39:37.028Z,1015.99
2023-02-02T05:40:37.050Z,1015.95
2023-02-02T05:41:37.072Z,1015.95
2023-02-02T05:42:37.095Z,1015.97
2023-02-02T05:43:37.120Z,1015.92
2023-02-02T05:44:37.142Z,1015.94
2023-02-02T05:45:37.221Z,1015.88
2023-02-02T05:46:37.197Z,1015.93
2023-02-02T05:47:37.220Z,1015.92
2023-02-02T05:48:37.238Z,1015.92
2023-02-02T05:49:37.260Z,1016.01
2023-02-02T05:50:37.285Z,1015.90
2023-02-02T05:51:37.334Z,1015.98
2023-02-02T05:52:37.338Z,1016.01
2023-02-02T05:53:37.356Z,1015.97
2023-02-02T05:54:37.404Z,1016.00
2023-02-02T05:55:37.410Z,1015.88
2023-02-02T05:56:37.431Z,1015.93
2023-02-02T05:57:37.456Z,1015.84
2023-02-02T05:58:37.479Z,1015.89
2023-02-02T05:59:37.495Z,1015.90
2023-02-02T06:00:37.521Z,1015.97
2023-02-02T06:01:37.551Z,1015.91
2023-02-02T06:02:37.568Z,1015.86
2023-02-02T06:03:37.750Z,1015.88
2023-02-02T06:04:37.618Z,1015.83
2023-02-02T06:05:37.639Z,1015.80
2023-02-02T06:06:37.676Z,1015.82
2023-02-02T06:07:37.687Z,1015.84
2023-02-02T06:08:37.710Z,1015.84
2023-02-02T06:09:37.733Z,1015.85
2023-02-02T06:10:37.778Z,1015.86
2023-02-02T06:11:37.783Z,1015.86
2023-02-02T06:12:37.805Z,1015.89
2023-02-02T06:13:37.829Z,1015.98
2023-02-02T06:14:37.854Z,1015.99
2023-02-02T06:15:37.930Z,1015.95
2023-02-02T06:16:37.901Z,1016.00
2023-02-02T06:17:37.924Z,1016.09
2023-02-02T06:18:37.952Z,1016.10
2023-02-02T06:19:37.988Z,1016.14
2023-02-02T06:20:37.994Z,1016.15
2023-02-02T06:21:38.021Z,1016.19
2023-02-02T06:22:38.055Z,1016.17
2023-02-02T06:23:38.064Z,1016.18
2023-02-02T06:24:38.090Z,1016.22
2023-02-02T06:25:38.121Z,1016.18
2023-02-02T06:26:38.205Z,1016.28
2023-02-02T06:27:38.311Z,1016.27
2023-02-02T06:28:38.184Z,1016.25
2023-02-02T06:29:38.257Z,1016.24
2023-02-02T06:30:38.266Z,1016.26
2023-02-02T06:31:38.377Z,1016.28
2023-02-02T06:32:38.283Z,1016.27
2023-02-02T06:33:38.307Z,1016.20
2023-02-02T06:34:38.335Z,1016.28
2023-02-02T06:35:38.352Z,1016.21
2023-02-02T06:36:38.377Z,1016.30
2023-02-02T06:37:38.499Z,1016.30
2023-02-02T06:38:38.424Z,1016.27
2023-02-02T06:39:38.445Z,1016.35
2023-02-02T06:40:38.474Z,1016.32
2023-02-02T06:41:38.494Z,1016.35
2023-02-02T06:42:38.539Z,1016.34
2023-02-02T06:43:38.543Z,1016.40
2023-02-02T06:44:38.567Z,1016.53
2023-02-02T06:45:38.589Z,1016.48
2023-02-02T06:46:38.683Z,1016.46
2023-02-02T06:47:38.639Z,1016.44
2023-02-02T06:48:38.664Z,1016.39
2023-02-02T06:49:38.685Z,1016.40
2023-02-02T06:50:38.711Z,1016.38
2023-02-02T06:51:38.736Z,1016.37
2023-02-02T06:52:38.855Z,1016.39
2023-02-02T06:53:38.784Z,1016.32
2023-02-02T06:54:38.809Z,1016.27
2023-02-02T06:55:38.834Z,1016.35
2023-02-02T06:56:38.852Z,1016.24
2023-02-02T06:57:38.877Z,1016.26
2023-02-02T06:58:38.921Z,1016.26
2023-02-02T06:59:38.925Z,1016.26
2023-02-02T07:00:38.947Z,1016.34
2023-02-02T07:01:39.020Z,1016.33
2023-02-02T07:02:39.017Z,1016.37
2023-02-02T07:03:39.020Z,1016.49
2023-02-02T07:04:39.041Z,1016.38
2023-02-02T07:05:39.074Z,1016.39
2023-02-02T07:06:39.091Z,1016.38
2023-02-02T07:07:39.119Z,1016.35
2023-02-02T07:08:39.153Z,1016.41
2023-02-02T07:09:39.164Z,1016.37
2023-02-02T07:11:13.104Z,1016.38
2023-02-02T07:11:41.419Z,1016.46
2023-02-02T07:12:39.234Z,1016.54
2023-02-02T07:13:39.260Z,1016.40
2023-02-02T07:14:39.303Z,1016.50
2023-02-02T07:15:39.385Z,1016.45
2023-02-02T07:16:39.353Z,1016.52
2023-02-02T07:17:39.358Z,1016.56
2023-02-02T07:18:39.382Z,1016.59
2023-02-02T07:19:39.407Z,1016.54
2023-02-02T07:20:39.427Z,1016.49
2023-02-02T07:21:39.453Z,1016.60
2023-02-02T07:22:39.479Z,1016.56
2023-02-02T07:23:39.500Z,1016.61
2023-02-02T07:24:39.528Z,1016.60
2023-02-02T07:25:39.589Z,1016.66
2023-02-02T07:26:39.618Z,1016.60
2023-02-02T07:27:39.627Z,1016.60
2023-02-02T07:28:39.618Z,1016.63
2023-02-02T07:29:39.650Z,1016.56
2023-02-02T07:30:39.716Z,1016.57
2023-02-02T07:31:39.791Z,1016.64
2023-02-02T07:32:39.715Z,1016.64
2023-02-02T07:33:39.737Z,1016.66
2023-02-02T07:34:39.769Z,1016.73
2023-02-02T07:35:39.801Z,1016.70
2023-02-02T07:36:39.811Z,1016.69
2023-02-02T07:37:40.146Z,1016.68
2023-02-02T07:38:39.877Z,1016.66
2023-02-02T07:39:39.883Z,1016.68
2023-02-02T07:40:39.918Z,1016.64
2023-02-02T07:41:39.937Z,1016.67
2023-02-02T07:42:39.958Z,1016.71
2023-02-02T07:43:39.980Z,1016.66
2023-02-02T07:44:40.003Z,1016.62
2023-02-02T07:45:40.502Z,1016.70
2023-02-02T07:46:40.107Z,1016.80
2023-02-02T07:47:40.089Z,1016.73
2023-02-02T07:48:40.099Z,1016.73
2023-02-02T07:49:40.128Z,1016.72
2023-02-02T07:50:40.147Z,1016.78
2023-02-02T07:51:44.290Z,1016.74
2023-02-02T07:52:40.197Z,1016.86
2023-02-02T07:53:40.222Z,1016.75
2023-02-02T07:54:40.242Z,1016.82
2023-02-02T07:55:40.269Z,1016.76
2023-02-02T07:56:40.290Z,1016.85
2023-02-02T07:57:40.320Z,1016.80
2023-02-02T07:58:40.341Z,1016.75
2023-02-02T07:59:40.365Z,1016.60
2023-02-02T08:00:40.438Z,1016.80
2023-02-02T08:01:40.474Z,1016.76
2023-02-02T08:02:40.495Z,1016.79
2023-02-02T08:03:40.461Z,1016.82
2023-02-02T08:04:40.489Z,1016.78
2023-02-02T08:05:40.508Z,1016.78
2023-02-02T08:06:40.531Z,1016.83
2023-02-02T08:07:40.560Z,1016.83
2023-02-02T08:08:40.575Z,1016.82
2023-02-02T08:09:40.603Z,1016.81
2023-02-02T08:10:40.630Z,1016.86
2023-02-02T08:11:40.666Z,1016.82
2023-02-02T08:12:40.674Z,1016.80
2023-02-02T08:13:40.752Z,1016.78
2023-02-02T08:14:40.735Z,1016.78
2023-02-02T08:15:40.753Z,1016.76
2023-02-02T08:16:40.769Z,1016.80
2023-02-02T08:17:40.795Z,1016.75
2023-02-02T08:18:40.837Z,1016.76
2023-02-02T08:19:40.843Z,1016.70
2023-02-02T08:20:40.870Z,1016.76
2023-02-02T08:21:40.893Z,1016.77
2023-02-02T08:22:40.913Z,1016.80
2023-02-02T08:23:40.940Z,1016.80
2023-02-02T08:24:40.963Z,1016.85
2023-02-02T08:25:40.990Z,1016.86
2023-02-02T08:26:41.052Z,1016.85
2023-02-02T08:27:41.038Z,1016.86
2023-02-02T08:28:41.058Z,1016.89
2023-02-02T08:29:41.087Z,1016.87
2023-02-02T08:30:41.141Z,1016.86
2023-02-02T08:31:41.178Z,1016.90
2023-02-02T08:32:41.158Z,1016.94
2023-02-02T08:33:41.181Z,1016.93
2023-02-02T08:34:41.223Z,1016.92
2023-02-02T08:35:41.236Z,1016.93
2023-02-02T08:36:41.250Z,1016.90
2023-02-02T08:37:41.278Z,1016.94
2023-02-02T08:38:41.300Z,1016.96
2023-02-02T08:39:41.332Z,1017.00
2023-02-02T08:40:41.346Z,1017.00
2023-02-02T08:41:41.372Z,1016.97
2023-02-02T08:42:41.394Z,1017.05
2023-02-02T08:43:41.419Z,1017.02
2023-02-02T08:44:44.873Z,1016.98
2023-02-02T08:46:02.800Z,1017.07
2023-02-02T08:46:41.563Z,1016.98
2023-02-02T08:47:41.516Z,1017.05
2023-02-02T08:48:41.538Z,1017.05
2023-02-02T08:49:41.567Z,1017.00
2023-02-02T08:50:41.617Z,1017.09
2023-02-02T08:51:41.622Z,1017.07
2023-02-02T08:52:41.634Z,1017.07
2023-02-02T08:53:41.662Z,1017.09
2023-02-02T08:54:41.684Z,1017.07
2023-02-02T08:55:41.713Z,1017.10
2023-02-02T08:56:41.736Z,1017.05
2023-02-02T08:57:41.758Z,1017.06
2023-02-02T08:58:41.780Z,1017.05
2023-02-02T08:59:41.810Z,1017.08
2023-02-02T09:00:41.849Z,1017.09
2023-02-02T09:01:41.861Z,1017.12
2023-02-02T09:02:41.878Z,1017.13
2023-02-02T09:03:41.911Z,1017.10
2023-02-02T09:04:41.926Z,1017.16
2023-02-02T09:05:41.950Z,1017.15
2023-02-02T09:06:41.996Z,1017.24
2023-02-02T09:07:41.997Z,1017.19
2023-02-02T09:08:42.044Z,1017.16
2023-02-02T09:09:42.044Z,1017.26
2023-02-02T09:10:42.081Z,1017.24
2023-02-02T09:11:42.116Z,1017.29
2023-02-02T09:12:42.115Z,1017.25
2023-02-02T09:13:42.146Z,1017.19
2023-02-02T09:14:42.164Z,1017.35
2023-02-02T09:15:42.193Z,1017.26
2023-02-02T09:16:42.261Z,1017.28
2023-02-02T09:17:42.239Z,1017.30
2023-02-02T09:18:42.263Z,1017.34
2023-02-02T09:19:42.289Z,1017.37
2023-02-02T09:21:44.922Z,1017.32
2023-02-02T09:22:44.927Z,1017.30
2023-02-02T09:23:44.952Z,1017.39
2023-02-02T09:24:44.980Z,1017.38
2023-02-02T09:25:45.001Z,1017.35
2023-02-02T09:26:45.076Z,1017.41
2023-02-02T09:27:45.048Z,1017.42
2023-02-02T09:28:45.080Z,1017.40
2023-02-02T09:29:45.097Z,1017.47
2023-02-02T09:30:45.200Z,1017.41
2023-02-02T09:31:45.238Z,1017.51
2023-02-02T09:32:45.174Z,1017.48
2023-02-02T09:33:45.193Z,1017.46
2023-02-02T09:34:45.218Z,1017.52
2023-02-02T09:35:45.240Z,1017.59
2023-02-02T09:36:45.266Z,1017.58
2023-02-02T09:37:45.359Z,1017.60
2023-02-02T09:38:45.331Z,1017.58
2023-02-02T09:39:45.336Z,1017.46
2023-02-02T09:40:45.367Z,1017.59
2023-02-02T09:41:45.392Z,1017.56
2023-02-02T09:42:45.411Z,1017.68
2023-02-02T09:43:45.447Z,1017.66
2023-02-02T09:44:45.466Z,1017.64
2023-02-02T09:45:45.518Z,1017.73
2023-02-02T09:46:45.516Z,1017.64
2023-02-02T09:47:45.531Z,1017.67
2023-02-02T09:48:45.561Z,1017.68
2023-02-02T09:49:45.578Z,1017.74
2023-02-02T09:50:45.623Z,1017.76
2023-02-02T09:51:45.626Z,1017.78
2023-02-02T09:52:45.652Z,1017.77
2023-02-02T09:53:55.131Z,1017.83
2023-02-02T09:54:45.717Z,1017.82
2023-02-02T09:55:45.725Z,1017.85
2023-02-02T09:56:45.748Z,1017.88
2023-02-02T09:57:45.781Z,1017.82
2023-02-02T09:58:45.796Z,1017.86
2023-02-02T09:59:45.819Z,1017.91
2023-02-02T10:00:45.847Z,1018.03
2023-02-02T10:01:45.937Z,1018.03
2023-02-02T10:02:45.894Z,1017.93
2023-02-02T10:03:45.963Z,1017.97
2023-02-02T10:04:45.941Z,1018.00
2023-02-02T10:05:45.965Z,1018.09
2023-02-02T10:06:45.989Z,1018.05
2023-02-02T10:07:46.013Z,1018.06
2023-02-02T10:08:46.040Z,1018.14
2023-02-02T10:09:46.084Z,1018.11
2023-02-02T10:10:46.087Z,1018.06
2023-02-02T10:11:46.113Z,1018.09
2023-02-02T10:12:46.136Z,1018.21
2023-02-02T10:13:46.158Z,1018.17
2023-02-02T10:14:46.262Z,1018.14
2023-02-02T10:15:46.294Z,1018.15
2023-02-02T10:16:46.233Z,1018.17
2023-02-02T10:17:46.265Z,1018.18
2023-02-02T10:18:46.277Z,1018.25
2023-02-02T10:19:46.306Z,1018.28
2023-02-02T10:20:46.338Z,1018.27
2023-02-02T10:21:46.351Z,1018.23
2023-02-02T10:22:46.382Z,1018.21
2023-02-02T10:23:46.398Z,1018.29
2023-02-02T10:24:46.424Z,1018.27
2023-02-02T10:25:46.480Z,1018.22
2023-02-02T10:26:46.540Z,1018.29
2023-02-02T10:27:46.535Z,1018.36
2023-02-02T10:28:46.518Z,1018.30
2023-02-02T10:29:49.116Z,1018.32
2023-02-02T10:30:46.722Z,1018.33
2023-02-02T10:31:46.760Z,1018.33
2023-02-02T10:32:46.617Z,1018.36
2023-02-02T10:33:46.637Z,1018.46
2023-02-02T10:34:46.668Z,1018.45
2023-02-02T10:35:46.691Z,1018.46
2023-02-02T10:36:46.712Z,1018.45
2023-02-02T10:37:46.738Z,1018.50
2023-02-02T10:38:46.768Z,1018.50
2023-02-02T10:39:46.858Z,1018.51
2023-02-02T10:40:46.811Z,1018.47
2023-02-02T10:41:46.853Z,1018.54
2023-02-02T10:42:46.860Z,1018.58
2023-02-02T10:43:46.930Z,1018.54
2023-02-02T10:44:46.906Z,1018.54
2023-02-02T10:45:46.929Z,1018.50
2023-02-02T10:46:46.959Z,1018.53
2023-02-02T10:47:46.978Z,1018.52
2023-02-02T10:48:47.016Z,1018.49
2023-02-02T10:49:47.027Z,1018.48
2023-02-02T10:50:47.052Z,1018.52
2023-02-02T10:51:47.073Z,1018.52
2023-02-02T10:52:47.125Z,1018.48
2023-02-02T10:53:47.123Z,1018.54
2023-02-02T10:54:56.428Z,1018.50
2023-02-02T10:55:47.170Z,1018.53
2023-02-02T10:56:47.196Z,1018.45
2023-02-02T10:57:47.245Z,1018.57
2023-02-02T10:58:47.244Z,1018.56
2023-02-02T10:59:47.300Z,1018.48
2023-02-02T11:00:47.327Z,1018.46
2023-02-02T11:01:47.371Z,1018.48
2023-02-02T11:02:47.418Z,1018.51
2023-02-02T11:03:47.368Z,1018.50
2023-02-02T11:04:47.392Z,1018.58
2023-02-02T11:05:47.425Z,1018.48
2023-02-02T11:06:47.441Z,1018.55
2023-02-02T11:07:47.463Z,1018.50
2023-02-02T11:08:47.497Z,1018.54
2023-02-02T11:09:47.525Z,1018.55
2023-02-02T11:10:47.543Z,1018.43
2023-02-02T11:11:47.560Z,1018.51
2023-02-02T11:12:47.588Z,1018.45
2023-02-02T11:13:47.639Z,1018.42
2023-02-02T11:14:47.634Z,1018.40
2023-02-02T11:15:47.733Z,1018.46
2023-02-02T11:16:47.734Z,1018.48
2023-02-02T11:17:47.709Z,1018.45
2023-02-02T11:18:47.732Z,1018.40
2023-02-02T11:19:47.758Z,1018.49
2023-02-02T11:20:47.792Z,1018.54
2023-02-02T11:21:47.807Z,1018.53
2023-02-02T11:22:47.837Z,1018.53
2023-02-02T11:23:48.848Z,1018.57
2023-02-02T11:24:47.899Z,1018.57
2023-02-02T11:25:47.905Z,1018.61
2023-02-02T11:26:48.017Z,1018.58
2023-02-02T11:27:47.960Z,1018.58
2023-02-02T11:28:47.980Z,1018.63
2023-02-02T11:29:48.036Z,1018.60
2023-02-02T11:30:48.109Z,1018.62
2023-02-02T11:31:48.158Z,1018.62
2023-02-02T11:32:48.078Z,1018.60
2023-02-02T11:33:48.105Z,1018.56
2023-02-02T11:34:48.127Z,1018.62
2023-02-02T11:35:48.150Z,1018.59
2023-02-02T11:36:48.176Z,1018.58
2023-02-02T11:37:48.200Z,1018.57
2023-02-02T11:38:48.227Z,1018.57
2023-02-02T11:39:48.255Z,1018.58
2023-02-02T11:40:48.277Z,1018.58
2023-02-02T11:41:48.297Z,1018.58
2023-02-02T11:42:48.350Z,1018.64
2023-02-02T11:43:48.353Z,1018.61
2023-02-02T11:44:48.377Z,1018.58
2023-02-02T11:45:48.418Z,1018.56
2023-02-02T11:46:48.457Z,1018.62
2023-02-02T11:47:48.446Z,1018.60
2023-02-02T11:48:48.476Z,1018.59
2023-02-02T11:49:48.496Z,1018.60
2023-02-02T11:50:48.572Z,1018.53
2023-02-02T11:51:48.549Z,1018.58
2023-02-02T11:52:49.784Z,1018.61
2023-02-02T11:53:48.595Z,1018.47
2023-02-02T11:54:48.621Z,1018.55
2023-02-02T11:55:48.646Z,1018.45
2023-02-02T11:56:48.669Z,1018.52
2023-02-02T11:57:48.694Z,1018.39
2023-02-02T11:58:48.726Z,1018.47
2023-02-02T11:59:48.743Z,1018.41
2023-02-02T12:00:48.768Z,1018.41
2023-02-02T12:01:48.872Z,1018.44
2023-02-02T12:02:48.840Z,1018.39
2023-02-02T12:03:48.868Z,1018.45
2023-02-02T12:04:48.870Z,1018.33
2023-02-02T12:05:48.894Z,1018.34
2023-02-02T12:06:48.917Z,1018.41
2023-02-02T12:07:48.960Z,1018.34